Ashland, Maine
Current Conditions -  °F | °C
As of 12:15 PM on Thursday 27 Nov 2014 (Local Time) from KPQI Reporting Station
Overcast Overcast  
Wind Chill: 13°   Ceiling: 2300
Heat Index: 27°   Visibility: 9mi
Dew Point: 18°   Wind: 18mph
Humidity: 69%   Direction: 330°NNW
Pressure: 29.83"   Gusts: 25mph
Location:  46.63°N, 68.41°W
Report Text: KPQI 271715Z AUTO 33016G22KT 9SM BKN023 OVC031 M03/M08 A2983 RMK AO1
Loading
Personal Weather Stations






























Interactive Weather Map New forecast layout! Learn more

10-Day Weather Forecast

Advertisements
Track Severe Weather on mobile